createdAt,value
2016-07-31T00:00:28.808Z,1008.38
2016-07-31T00:01:28.803Z,1008.34
2016-07-31T00:02:28.800Z,1008.34
2016-07-31T00:03:28.800Z,1008.33
2016-07-31T00:04:29.097Z,1008.33
2016-07-31T00:05:28.793Z,1008.3
2016-07-31T00:06:28.792Z,1008.24
2016-07-31T00:07:28.789Z,1008.3
2016-07-31T00:08:28.786Z,1008.22
2016-07-31T00:10:28.784Z,1008.28
2016-07-31T00:11:28.931Z,1008.27
2016-07-31T00:12:28.781Z,1008.3
2016-07-31T00:13:28.776Z,1008.31
2016-07-31T00:14:28.775Z,1008.27
2016-07-31T00:15:28.772Z,1008.25
2016-07-31T00:16:28.771Z,1008.24
2016-07-31T00:17:28.769Z,1008.22
2016-07-31T00:18:28.767Z,1008.23
2016-07-31T00:19:28.764Z,1008.21
2016-07-31T00:20:28.761Z,1008.2
2016-07-31T00:21:28.760Z,1008.19
2016-07-31T00:22:28.758Z,1008.2
2016-07-31T00:23:28.753Z,1008.17
2016-07-31T00:24:28.751Z,1008.2
2016-07-31T00:25:28.749Z,1008.18
2016-07-31T00:26:28.749Z,1008.15
2016-07-31T00:27:28.744Z,1008.18
2016-07-31T00:28:28.742Z,1008.18
2016-07-31T00:29:28.740Z,1008.18
2016-07-31T00:30:28.737Z,1008.21
2016-07-31T00:31:28.735Z,1008.21
2016-07-31T00:32:28.735Z,1008.23
2016-07-31T00:33:28.731Z,1008.23
2016-07-31T00:34:28.730Z,1008.23
2016-07-31T00:35:28.725Z,1008.31
2016-07-31T00:36:28.723Z,1008.3
2016-07-31T00:37:28.722Z,1008.31
2016-07-31T00:38:28.718Z,1008.29
2016-07-31T00:39:28.716Z,1008.32
2016-07-31T00:40:28.715Z,1008.33
2016-07-31T00:41:28.713Z,1008.32
2016-07-31T00:42:28.708Z,1008.32
2016-07-31T00:43:28.706Z,1008.3
2016-07-31T00:44:28.706Z,1008.31
2016-07-31T00:45:28.702Z,1008.35
2016-07-31T00:46:28.699Z,1008.32
2016-07-31T00:47:28.700Z,1008.35
2016-07-31T00:48:28.696Z,1008.33
2016-07-31T00:49:28.693Z,1008.3
2016-07-31T00:50:28.691Z,1008.34
2016-07-31T00:51:28.688Z,1008.37
2016-07-31T00:52:28.688Z,1008.38
2016-07-31T00:53:30.208Z,1008.37
2016-07-31T00:54:29.704Z,1008.39
2016-07-31T00:55:28.681Z,1008.41
2016-07-31T00:56:28.989Z,1008.39
2016-07-31T00:57:28.750Z,1008.38
2016-07-31T00:58:28.674Z,1008.38
2016-07-31T00:59:28.669Z,1008.4
2016-07-31T01:00:28.668Z,1008.41
2016-07-31T01:01:28.667Z,1008.45
2016-07-31T01:02:28.664Z,1008.45
2016-07-31T01:03:28.660Z,1008.43
2016-07-31T01:04:29.565Z,1008.45
2016-07-31T01:05:28.655Z,1008.43
2016-07-31T01:06:28.654Z,1008.4
2016-07-31T01:07:28.653Z,1008.38
2016-07-31T01:08:28.964Z,1008.4
2016-07-31T01:09:28.646Z,1008.36
2016-07-31T01:10:28.646Z,1008.34
2016-07-31T01:11:28.643Z,1008.34
2016-07-31T01:12:28.642Z,1008.35
2016-07-31T01:13:28.637Z,1008.34
2016-07-31T01:14:28.634Z,1008.36
2016-07-31T01:15:28.632Z,1008.35
2016-07-31T01:16:28.631Z,1008.34
2016-07-31T01:17:28.628Z,1008.37
2016-07-31T01:18:28.625Z,1008.35
2016-07-31T01:19:28.925Z,1008.34
2016-07-31T01:20:28.623Z,1008.27
2016-07-31T01:21:28.617Z,1008.3
2016-07-31T01:22:28.616Z,1008.28
2016-07-31T01:23:28.814Z,1008.28
2016-07-31T01:24:28.613Z,1008.26
2016-07-31T01:26:28.607Z,1008.24
2016-07-31T01:27:29.508Z,1008.18
2016-07-31T01:28:29.107Z,1008.2
2016-07-31T01:29:28.602Z,1008.19
2016-07-31T01:30:28.798Z,1008.21
2016-07-31T01:31:28.746Z,1008.22
2016-07-31T01:32:28.593Z,1008.21
2016-07-31T01:33:28.590Z,1008.21
2016-07-31T01:34:28.590Z,1008.2
2016-07-31T01:35:28.589Z,1008.23
2016-07-31T01:36:28.585Z,1008.19
2016-07-31T01:37:28.582Z,1008.2
2016-07-31T01:38:28.582Z,1008.22
2016-07-31T01:39:28.578Z,1008.21
2016-07-31T01:40:28.574Z,1008.17
2016-07-31T01:41:28.573Z,1008.18
2016-07-31T01:42:28.570Z,1008.15
2016-07-31T01:43:28.568Z,1008.17
2016-07-31T01:44:28.566Z,1008.15
2016-07-31T01:45:28.564Z,1008.14
2016-07-31T01:46:28.563Z,1008.13
2016-07-31T01:47:28.561Z,1008.07
2016-07-31T01:48:28.559Z,1008.1
2016-07-31T01:49:28.554Z,1008.08
2016-07-31T01:50:28.552Z,1008.1
2016-07-31T01:51:28.550Z,1008.08
2016-07-31T01:52:28.549Z,1008.09
2016-07-31T01:53:28.545Z,1008.1
2016-07-31T01:54:28.945Z,1008.11
2016-07-31T01:55:28.541Z,1008.1
2016-07-31T01:56:28.538Z,1008.12
2016-07-31T01:57:28.536Z,1008.11
2016-07-31T01:58:28.533Z,1008.12
2016-07-31T01:59:28.531Z,1008.12
2016-07-31T02:00:28.529Z,1008.13
2016-07-31T02:01:28.529Z,1008.12
2016-07-31T02:02:28.523Z,1008.1
2016-07-31T02:03:28.523Z,1008.14
2016-07-31T02:04:28.519Z,1008.12
2016-07-31T02:05:28.518Z,1008.13
2016-07-31T02:06:28.515Z,1008.1
2016-07-31T02:07:28.514Z,1008.13
2016-07-31T02:08:28.512Z,1008.14
2016-07-31T02:09:28.507Z,1008.12
2016-07-31T02:10:28.505Z,1008.17
2016-07-31T02:11:28.503Z,1008.16
2016-07-31T02:12:28.501Z,1008.16
2016-07-31T02:13:28.499Z,1008.18
2016-07-31T02:14:29.271Z,1008.16
2016-07-31T02:15:28.493Z,1008.13
2016-07-31T02:16:28.489Z,1008.14
2016-07-31T02:17:28.487Z,1008.15
2016-07-31T02:18:28.486Z,1008.13
2016-07-31T02:19:28.485Z,1008.07
2016-07-31T02:21:28.477Z,1008.05
2016-07-31T02:22:28.547Z,1008.05
2016-07-31T02:23:28.473Z,1007.98
2016-07-31T02:24:29.147Z,1008.07
2016-07-31T02:25:28.467Z,1008.04
2016-07-31T02:26:28.468Z,1008.05
2016-07-31T02:27:28.463Z,1008.04
2016-07-31T02:28:28.462Z,1008.07
2016-07-31T02:29:28.457Z,1008.09
2016-07-31T02:30:28.455Z,1008.05
2016-07-31T02:31:28.451Z,1008.04
2016-07-31T02:32:28.450Z,1008
2016-07-31T02:33:28.447Z,1007.95
2016-07-31T02:35:28.443Z,1007.91
2016-07-31T02:36:28.942Z,1007.95
2016-07-31T02:37:28.435Z,1007.94
2016-07-31T02:38:28.432Z,1007.93
2016-07-31T02:39:28.430Z,1007.95
2016-07-31T02:40:28.428Z,1007.89
2016-07-31T02:41:28.434Z,1007.96
2016-07-31T02:42:28.424Z,1007.93
2016-07-31T02:44:29.469Z,1007.88
2016-07-31T02:45:28.765Z,1007.86
2016-07-31T02:46:29.465Z,1007.88
2016-07-31T02:47:28.411Z,1007.88
2016-07-31T02:48:28.405Z,1007.89
2016-07-31T02:49:28.405Z,1007.9
2016-07-31T02:50:28.403Z,1007.89
2016-07-31T02:51:28.499Z,1007.88
2016-07-31T02:52:28.398Z,1007.88
2016-07-31T02:53:28.392Z,1007.86
2016-07-31T02:54:28.391Z,1007.85
2016-07-31T02:55:28.387Z,1007.8
2016-07-31T02:56:28.385Z,1007.84
2016-07-31T02:57:28.380Z,1007.82
2016-07-31T02:59:28.375Z,1007.84
2016-07-31T03:00:28.372Z,1007.81
2016-07-31T03:01:28.370Z,1007.8
2016-07-31T03:02:28.369Z,1007.76
2016-07-31T03:03:28.365Z,1007.81
2016-07-31T03:04:28.360Z,1007.82
2016-07-31T03:05:28.368Z,1007.82
2016-07-31T03:06:28.355Z,1007.83
2016-07-31T03:07:28.352Z,1007.86
2016-07-31T03:08:28.348Z,1007.83
2016-07-31T03:09:28.346Z,1007.82
2016-07-31T03:10:28.345Z,1007.83
2016-07-31T03:11:28.343Z,1007.83
2016-07-31T03:12:28.340Z,1007.88
2016-07-31T03:14:28.332Z,1007.93
2016-07-31T03:15:28.330Z,1007.9
2016-07-31T03:16:28.325Z,1007.92
2016-07-31T03:17:28.324Z,1007.93
2016-07-31T03:18:28.320Z,1007.97
2016-07-31T03:19:28.316Z,1007.98
2016-07-31T03:20:28.316Z,1007.99
2016-07-31T03:21:28.313Z,1008.01
2016-07-31T03:22:28.308Z,1008.02
2016-07-31T03:23:28.307Z,1008.05
2016-07-31T03:24:28.305Z,1008.04
2016-07-31T03:25:28.302Z,1008.03
2016-07-31T03:26:28.298Z,1008.02
2016-07-31T03:27:28.296Z,1008.04
2016-07-31T03:30:28.285Z,1008.04
2016-07-31T03:31:29.371Z,1008.04
2016-07-31T03:32:29.081Z,1008.07
2016-07-31T03:33:28.279Z,1008.08
2016-07-31T03:34:28.687Z,1008.1
2016-07-31T03:35:28.571Z,1008.1
2016-07-31T03:36:28.269Z,1008.13
2016-07-31T03:37:28.266Z,1008.1
2016-07-31T03:38:28.264Z,1008.1
2016-07-31T03:39:28.715Z,1008.11
2016-07-31T03:40:28.258Z,1008.09
2016-07-31T03:41:28.256Z,1008.13
2016-07-31T03:42:28.255Z,1008.13
2016-07-31T03:43:28.253Z,1008.17
2016-07-31T03:44:28.635Z,1008.19
2016-07-31T03:45:28.247Z,1008.16
2016-07-31T03:46:28.246Z,1008.16
2016-07-31T03:47:28.241Z,1008.2
2016-07-31T03:48:28.238Z,1008.17
2016-07-31T03:49:28.238Z,1008.19
2016-07-31T03:50:28.234Z,1008.21
2016-07-31T03:51:28.231Z,1008.25
2016-07-31T03:52:28.231Z,1008.25
2016-07-31T03:54:29.076Z,1008.26
2016-07-31T03:55:28.224Z,1008.25
2016-07-31T03:56:28.221Z,1008.25
2016-07-31T03:57:28.217Z,1008.25
2016-07-31T03:58:28.216Z,1008.24
2016-07-31T03:59:28.214Z,1008.25
2016-07-31T04:00:28.214Z,1008.22
2016-07-31T04:01:28.212Z,1008.18
2016-07-31T04:02:28.207Z,1008.2
2016-07-31T04:03:28.206Z,1008.18
2016-07-31T04:05:28.205Z,1008.14
2016-07-31T04:06:28.199Z,1008.12
2016-07-31T04:07:28.547Z,1008.14
2016-07-31T04:08:28.196Z,1008.14
2016-07-31T04:09:28.196Z,1008.12
2016-07-31T04:10:28.192Z,1008.12
2016-07-31T04:11:28.191Z,1008.09
2016-07-31T04:12:28.189Z,1008.06
2016-07-31T04:13:28.188Z,1008.05
2016-07-31T04:14:28.185Z,1008.03
2016-07-31T04:15:28.185Z,1008.09
2016-07-31T04:16:28.182Z,1008.08
2016-07-31T04:17:28.182Z,1008.01
2016-07-31T04:18:28.180Z,1008.01
2016-07-31T04:19:28.177Z,1008.01
2016-07-31T04:20:28.176Z,1007.98
2016-07-31T04:21:28.175Z,1008
2016-07-31T04:22:28.172Z,1007.98
2016-07-31T04:23:28.170Z,1008.04
2016-07-31T04:24:28.170Z,1007.97
2016-07-31T04:25:28.169Z,1007.98
2016-07-31T04:26:28.167Z,1007.97
2016-07-31T04:27:28.165Z,1008.03
2016-07-31T04:28:28.166Z,1007.99
2016-07-31T04:29:28.164Z,1007.95
2016-07-31T04:30:28.162Z,1007.92
2016-07-31T04:31:28.162Z,1007.9
2016-07-31T04:32:28.160Z,1007.87
2016-07-31T04:33:28.159Z,1007.89
2016-07-31T04:34:28.158Z,1007.92
2016-07-31T04:35:28.157Z,1007.89
2016-07-31T04:36:28.158Z,1007.91
2016-07-31T04:37:28.158Z,1007.88
2016-07-31T04:38:28.156Z,1007.87
2016-07-31T04:39:28.155Z,1007.89
2016-07-31T04:40:28.156Z,1007.89
2016-07-31T04:41:28.155Z,1007.89
2016-07-31T04:42:28.153Z,1007.87
2016-07-31T04:43:28.154Z,1007.93
2016-07-31T04:44:28.153Z,1007.93
2016-07-31T04:45:28.154Z,1007.91
2016-07-31T04:46:28.153Z,1007.89
2016-07-31T04:47:28.152Z,1007.9
2016-07-31T04:48:28.153Z,1007.92
2016-07-31T04:49:29.397Z,1007.87
2016-07-31T04:50:28.151Z,1007.88
2016-07-31T04:51:28.152Z,1007.91
2016-07-31T04:52:28.150Z,1007.89
2016-07-31T04:53:28.148Z,1007.85
2016-07-31T04:54:28.150Z,1007.83
2016-07-31T04:55:28.151Z,1007.8
2016-07-31T04:56:28.149Z,1007.79
2016-07-31T04:57:28.150Z,1007.76
2016-07-31T04:58:28.150Z,1007.8
2016-07-31T04:59:28.806Z,1007.78
2016-07-31T05:00:28.152Z,1007.82
2016-07-31T05:01:28.150Z,1007.81
2016-07-31T05:02:28.150Z,1007.84
2016-07-31T05:03:28.150Z,1007.85
2016-07-31T05:04:28.151Z,1007.85
2016-07-31T05:05:28.150Z,1007.89
2016-07-31T05:06:28.153Z,1007.86
2016-07-31T05:07:28.152Z,1007.81
2016-07-31T05:08:28.152Z,1007.81
2016-07-31T05:09:28.153Z,1007.79
2016-07-31T05:10:28.155Z,1007.84
2016-07-31T05:11:28.158Z,1007.87
2016-07-31T05:12:28.156Z,1007.84
2016-07-31T05:14:28.158Z,1007.83
2016-07-31T05:15:28.408Z,1007.85
2016-07-31T05:16:28.162Z,1007.83
2016-07-31T05:17:28.161Z,1007.85
2016-07-31T05:18:28.165Z,1007.8
2016-07-31T05:19:28.165Z,1007.81
2016-07-31T05:20:28.165Z,1007.83
2016-07-31T05:21:28.167Z,1007.88
2016-07-31T05:22:28.169Z,1007.83
2016-07-31T05:23:28.172Z,1007.82
2016-07-31T05:24:28.172Z,1007.88
2016-07-31T05:25:28.175Z,1008.01
2016-07-31T05:26:28.176Z,1007.85
2016-07-31T05:27:28.180Z,1007.82
2016-07-31T05:28:28.181Z,1007.88
2016-07-31T05:29:28.185Z,1007.93
2016-07-31T05:30:28.188Z,1007.99
2016-07-31T05:31:28.192Z,1008.08
2016-07-31T05:32:28.200Z,1008.18
2016-07-31T05:33:28.199Z,1008.17
2016-07-31T05:34:28.202Z,1008.2
2016-07-31T05:35:28.204Z,1008.13
2016-07-31T05:36:28.211Z,1008.26
2016-07-31T05:37:28.214Z,1008.28
2016-07-31T05:38:28.219Z,1008.35
2016-07-31T05:39:28.224Z,1008.37
2016-07-31T05:40:28.228Z,1008.41
2016-07-31T05:41:28.235Z,1008.49
2016-07-31T05:42:28.239Z,1008.47
2016-07-31T05:43:28.246Z,1008.4
2016-07-31T05:44:28.251Z,1008.43
2016-07-31T05:45:28.259Z,1008.41
2016-07-31T05:46:28.266Z,1008.4
2016-07-31T05:47:28.272Z,1008.41
2016-07-31T05:48:28.279Z,1008.36
2016-07-31T05:49:28.289Z,1008.38
2016-07-31T05:50:28.295Z,1008.27
2016-07-31T05:51:28.302Z,1008.23
2016-07-31T05:52:28.311Z,1008.26
2016-07-31T05:53:28.317Z,1008.24
2016-07-31T05:54:28.425Z,1008.3
2016-07-31T05:55:28.330Z,1008.32
2016-07-31T05:56:28.337Z,1008.29
2016-07-31T05:57:28.346Z,1008.29
2016-07-31T05:58:28.354Z,1008.29
2016-07-31T05:59:28.361Z,1008.35
2016-07-31T06:00:28.369Z,1008.51
2016-07-31T06:01:28.376Z,1008.55
2016-07-31T06:02:28.381Z,1008.52
2016-07-31T06:03:28.391Z,1008.43
2016-07-31T06:04:28.397Z,1008.36
2016-07-31T06:05:28.404Z,1008.41
2016-07-31T06:06:28.411Z,1008.5
2016-07-31T06:07:28.418Z,1008.55
2016-07-31T06:08:28.963Z,1008.53
2016-07-31T06:09:28.434Z,1008.55
2016-07-31T06:10:28.438Z,1008.59
2016-07-31T06:11:28.446Z,1008.61
2016-07-31T06:12:28.572Z,1008.63
2016-07-31T06:13:28.460Z,1008.61
2016-07-31T06:14:28.464Z,1008.57
2016-07-31T06:15:29.778Z,1008.56
2016-07-31T06:16:28.477Z,1008.51
2016-07-31T06:17:28.485Z,1008.51
2016-07-31T06:18:28.490Z,1008.54
2016-07-31T06:19:28.497Z,1008.52
2016-07-31T06:20:28.505Z,1008.55
2016-07-31T06:21:28.881Z,1008.49
2016-07-31T06:22:28.517Z,1008.49
2016-07-31T06:23:28.526Z,1008.51
2016-07-31T06:24:28.534Z,1008.56
2016-07-31T06:25:28.536Z,1008.56
2016-07-31T06:26:28.545Z,1008.56
2016-07-31T06:27:28.551Z,1008.54
2016-07-31T06:28:28.559Z,1008.49
2016-07-31T06:29:28.566Z,1008.51
2016-07-31T06:30:28.574Z,1008.48
2016-07-31T06:31:28.581Z,1008.48
2016-07-31T06:32:28.584Z,1008.46
2016-07-31T06:33:28.593Z,1008.39
2016-07-31T06:34:28.599Z,1008.38
2016-07-31T06:35:28.615Z,1008.37
2016-07-31T06:36:28.615Z,1008.37
2016-07-31T06:37:28.621Z,1008.41
2016-07-31T06:38:28.628Z,1008.38
2016-07-31T06:39:28.637Z,1008.35
2016-07-31T06:42:28.658Z,1008.37
2016-07-31T06:43:28.665Z,1008.45
2016-07-31T06:45:28.680Z,1008.35
2016-07-31T06:46:28.690Z,1008.34
2016-07-31T06:47:28.696Z,1008.4
2016-07-31T06:48:28.704Z,1008.43
2016-07-31T06:49:28.711Z,1008.48
2016-07-31T06:50:28.720Z,1008.4
2016-07-31T06:51:28.728Z,1008.33
2016-07-31T06:52:28.738Z,1008.3
2016-07-31T06:53:28.747Z,1008.38
2016-07-31T06:54:28.755Z,1008.33
2016-07-31T06:55:28.762Z,1008.36
2016-07-31T06:56:28.771Z,1008.35
2016-07-31T06:57:28.780Z,1008.28
2016-07-31T06:58:28.789Z,1008.24
2016-07-31T07:00:28.811Z,1008.22
2016-07-31T07:01:28.817Z,1008.29
2016-07-31T07:02:28.827Z,1008.35
2016-07-31T07:03:28.836Z,1008.37
2016-07-31T07:04:28.843Z,1008.32
2016-07-31T07:05:28.851Z,1008.42
2016-07-31T07:06:28.864Z,1008.29
2016-07-31T07:07:28.871Z,1008.29
2016-07-31T07:08:28.881Z,1008.25
2016-07-31T07:09:28.891Z,1008.36
2016-07-31T07:10:28.899Z,1008.29
2016-07-31T07:11:28.909Z,1008.25
2016-07-31T07:12:28.917Z,1008.31
2016-07-31T07:13:28.929Z,1008.32
2016-07-31T07:15:28.947Z,1008.52
2016-07-31T07:16:28.955Z,1008.56
2016-07-31T07:17:28.964Z,1008.44
2016-07-31T07:18:28.974Z,1008.36
2016-07-31T07:19:28.982Z,1008.4
2016-07-31T07:20:28.992Z,1008.31
2016-07-31T07:21:29.004Z,1008.31
2016-07-31T07:22:29.014Z,1008.33
2016-07-31T07:23:29.021Z,1008.32
2016-07-31T07:24:29.032Z,1008.37
2016-07-31T07:25:29.042Z,1008.39
2016-07-31T07:26:29.048Z,1008.47
2016-07-31T07:27:29.057Z,1008.51
2016-07-31T07:28:29.069Z,1008.51
2016-07-31T07:30:29.093Z,1008.49
2016-07-31T07:31:29.095Z,1008.46
2016-07-31T07:32:29.101Z,1008.39
2016-07-31T07:33:29.111Z,1008.37
2016-07-31T07:34:29.120Z,1008.34
2016-07-31T07:35:29.125Z,1008.36
2016-07-31T07:36:29.136Z,1008.39
2016-07-31T07:37:29.145Z,1008.47
2016-07-31T07:38:29.151Z,1008.55
2016-07-31T07:39:29.159Z,1008.63
2016-07-31T07:40:29.168Z,1008.53
2016-07-31T07:41:29.177Z,1008.56
2016-07-31T07:42:29.184Z,1008.5
2016-07-31T07:43:29.193Z,1008.54
2016-07-31T07:45:29.207Z,1009.05
2016-07-31T07:46:29.215Z,1008.67
2016-07-31T07:47:29.227Z,1008.51
2016-07-31T07:48:29.884Z,1008.96
2016-07-31T07:49:30.042Z,1009.02
2016-07-31T07:50:29.251Z,1009.15
2016-07-31T07:51:29.263Z,1008.72
2016-07-31T07:52:29.273Z,1008.82
2016-07-31T07:53:29.280Z,1008.77
2016-07-31T07:54:29.392Z,1008.73
2016-07-31T07:55:29.305Z,1008.93
2016-07-31T07:56:29.313Z,1008.78
2016-07-31T07:57:29.324Z,1008.83
2016-07-31T07:58:29.337Z,1008.85
2016-07-31T08:00:29.359Z,1008.99
2016-07-31T08:01:29.370Z,1009.05
2016-07-31T08:02:29.380Z,1009.03
2016-07-31T08:03:29.390Z,1009.11
2016-07-31T08:04:29.403Z,1009.04
2016-07-31T08:05:29.415Z,1008.99
2016-07-31T08:06:29.426Z,1008.88
2016-07-31T08:07:29.435Z,1008.87
2016-07-31T08:08:29.446Z,1008.83
2016-07-31T08:09:29.456Z,1008.8
2016-07-31T08:10:29.468Z,1008.79
2016-07-31T08:11:29.478Z,1008.69
2016-07-31T08:12:29.490Z,1008.69
2016-07-31T08:13:29.499Z,1008.62
2016-07-31T08:15:29.523Z,1008.51
2016-07-31T08:16:29.532Z,1008.52
2016-07-31T08:17:29.544Z,1008.56
2016-07-31T08:18:29.551Z,1008.52
2016-07-31T08:19:29.561Z,1008.56
2016-07-31T08:20:29.572Z,1008.6
2016-07-31T08:21:29.581Z,1008.59
2016-07-31T08:22:29.590Z,1009.18
2016-07-31T08:23:29.600Z,1008.67
2016-07-31T08:24:30.925Z,1008.68
2016-07-31T08:25:29.619Z,1008.75
2016-07-31T08:26:29.629Z,1008.72
2016-07-31T08:27:29.638Z,1008.66
2016-07-31T08:28:30.029Z,1008.71
2016-07-31T08:30:29.667Z,1008.79
2016-07-31T08:31:29.676Z,1008.72
2016-07-31T08:32:29.686Z,1008.7
2016-07-31T08:33:29.697Z,1008.65
2016-07-31T08:34:29.703Z,1008.66
2016-07-31T08:35:29.718Z,1008.72
2016-07-31T08:36:29.722Z,1008.65
2016-07-31T08:37:29.733Z,1008.65
2016-07-31T08:38:29.741Z,1008.68
2016-07-31T08:39:29.752Z,1008.72
2016-07-31T08:40:29.760Z,1008.73
2016-07-31T08:41:29.768Z,1008.76
2016-07-31T08:42:29.778Z,1008.73
2016-07-31T08:43:29.789Z,1008.69
2016-07-31T08:44:29.797Z,1008.69
2016-07-31T08:45:29.807Z,1008.67
2016-07-31T08:46:29.816Z,1008.58
2016-07-31T08:47:29.825Z,1008.63
2016-07-31T08:48:29.834Z,1008.65
2016-07-31T08:49:29.845Z,1008.66
2016-07-31T08:50:29.853Z,1008.65
2016-07-31T08:51:29.861Z,1008.68
2016-07-31T08:52:29.870Z,1008.64
2016-07-31T08:53:29.882Z,1008.57
2016-07-31T08:54:29.890Z,1008.56
2016-07-31T08:55:29.899Z,1008.55
2016-07-31T08:56:29.910Z,1008.52
2016-07-31T08:57:29.920Z,1008.52
2016-07-31T08:58:29.926Z,1008.6
2016-07-31T08:59:29.936Z,1008.59
2016-07-31T09:00:29.945Z,1008.52
2016-07-31T09:01:29.958Z,1008.37
2016-07-31T09:02:29.964Z,1008.3
2016-07-31T09:03:29.974Z,1008.22
2016-07-31T09:04:29.983Z,1008.16
2016-07-31T09:05:29.993Z,1008.16
2016-07-31T09:06:30.000Z,1008.14
2016-07-31T09:07:30.012Z,1008.15
2016-07-31T09:08:30.573Z,1008.11
2016-07-31T09:09:30.030Z,1008.07
2016-07-31T09:10:30.038Z,1008.1
2016-07-31T09:11:30.648Z,1008.08
2016-07-31T09:12:30.059Z,1008.07
2016-07-31T09:13:30.067Z,1008.05
2016-07-31T09:14:30.077Z,1008.1
2016-07-31T09:15:30.084Z,1008.13
2016-07-31T09:16:30.093Z,1008.06
2016-07-31T09:17:30.101Z,1008.09
2016-07-31T09:18:30.112Z,1008.1
2016-07-31T09:19:30.121Z,1008.05
2016-07-31T09:20:30.127Z,1008.07
2016-07-31T09:21:30.387Z,1008.08
2016-07-31T09:22:30.145Z,1008.07
2016-07-31T09:23:30.155Z,1008.15
2016-07-31T09:24:30.161Z,1008.3
2016-07-31T09:25:30.172Z,1008.35
2016-07-31T09:26:30.179Z,1008.35
2016-07-31T09:27:30.186Z,1008.33
2016-07-31T09:28:30.198Z,1008.34
2016-07-31T09:29:30.204Z,1008.35
2016-07-31T09:30:30.213Z,1008.38
2016-07-31T09:31:30.223Z,1008.39
2016-07-31T09:32:30.231Z,1008.41
2016-07-31T09:33:30.239Z,1008.44
2016-07-31T09:34:30.248Z,1008.41
2016-07-31T09:35:30.253Z,1008.39
2016-07-31T09:36:30.265Z,1008.35
2016-07-31T09:37:30.273Z,1008.33
2016-07-31T09:38:30.280Z,1008.4
2016-07-31T09:39:30.289Z,1008.4
2016-07-31T09:40:30.296Z,1008.34
2016-07-31T09:41:30.305Z,1008.32
2016-07-31T09:42:30.312Z,1008.3
2016-07-31T09:43:30.322Z,1008.36
2016-07-31T09:44:30.329Z,1008.34
2016-07-31T09:45:30.338Z,1008.35
2016-07-31T09:46:31.013Z,1008.36
2016-07-31T09:47:30.356Z,1008.35
2016-07-31T09:48:30.365Z,1008.41
2016-07-31T09:49:30.376Z,1008.5
2016-07-31T09:50:30.382Z,1008.48
2016-07-31T09:51:30.978Z,1008.53
2016-07-31T09:52:30.400Z,1008.48
2016-07-31T09:53:30.405Z,1008.47
2016-07-31T09:54:30.565Z,1008.45
2016-07-31T09:55:30.458Z,1008.48
2016-07-31T09:56:30.432Z,1008.48
2016-07-31T09:57:30.443Z,1008.52
2016-07-31T09:58:30.451Z,1008.47
2016-07-31T09:59:30.460Z,1008.46
2016-07-31T10:00:30.469Z,1008.47
2016-07-31T10:01:30.478Z,1008.46
2016-07-31T10:02:30.485Z,1008.41
2016-07-31T10:03:30.494Z,1008.46
2016-07-31T10:04:30.502Z,1008.44
2016-07-31T10:05:30.510Z,1008.44
2016-07-31T10:06:30.522Z,1008.45
2016-07-31T10:07:30.530Z,1008.37
2016-07-31T10:08:30.537Z,1008.33
2016-07-31T10:09:30.548Z,1008.25
2016-07-31T10:10:30.557Z,1008.2
2016-07-31T10:11:30.565Z,1008.25
2016-07-31T10:12:30.576Z,1008.33
2016-07-31T10:13:30.586Z,1008.37
2016-07-31T10:14:30.595Z,1008.37
2016-07-31T10:15:30.603Z,1008.35
2016-07-31T10:16:30.611Z,1008.35
2016-07-31T10:17:30.623Z,1008.31
2016-07-31T10:18:30.632Z,1008.34
2016-07-31T10:19:30.640Z,1008.34
2016-07-31T10:20:30.650Z,1008.36
2016-07-31T10:21:30.660Z,1008.31
2016-07-31T10:22:30.670Z,1008.28
2016-07-31T10:23:30.678Z,1008.28
2016-07-31T10:24:30.990Z,1008.31
2016-07-31T10:25:30.700Z,1008.28
2016-07-31T10:26:30.706Z,1008.31
2016-07-31T10:27:30.715Z,1008.31
2016-07-31T10:28:30.778Z,1008.31
2016-07-31T10:29:30.734Z,1008.35
2016-07-31T10:30:30.744Z,1008.33
2016-07-31T10:31:30.755Z,1008.32
2016-07-31T10:32:30.763Z,1008.25
2016-07-31T10:33:30.774Z,1008.24
2016-07-31T10:35:30.790Z,1008.24
2016-07-31T10:36:30.802Z,1008.18
2016-07-31T10:37:31.209Z,1008.09
2016-07-31T10:38:30.821Z,1007.99
2016-07-31T10:39:30.829Z,1007.99
2016-07-31T10:40:30.839Z,1007.97
2016-07-31T10:41:30.849Z,1007.98
2016-07-31T10:42:30.856Z,1007.97
2016-07-31T10:43:30.866Z,1008.02
2016-07-31T10:44:30.874Z,1007.96
2016-07-31T10:45:30.884Z,1007.91
2016-07-31T10:46:30.892Z,1007.83
2016-07-31T10:47:30.903Z,1007.75
2016-07-31T10:48:30.911Z,1007.78
2016-07-31T10:49:30.919Z,1007.86
2016-07-31T10:50:30.928Z,1007.97
2016-07-31T10:51:30.935Z,1007.98
2016-07-31T10:52:30.944Z,1008.04
2016-07-31T10:53:30.955Z,1008.04
2016-07-31T10:54:30.964Z,1008.01
2016-07-31T10:55:30.971Z,1008.07
2016-07-31T10:56:30.980Z,1008.11
2016-07-31T10:57:30.989Z,1008.05
2016-07-31T10:58:30.996Z,1008.04
2016-07-31T10:59:31.005Z,1008.08
2016-07-31T11:00:31.016Z,1008.04
2016-07-31T11:01:31.023Z,1007.99
2016-07-31T11:02:31.030Z,1007.85
2016-07-31T11:03:31.039Z,1007.84
2016-07-31T11:04:32.000Z,1007.83
2016-07-31T11:05:31.534Z,1007.96
2016-07-31T11:06:31.067Z,1008.04
2016-07-31T11:07:31.075Z,1008.08
2016-07-31T11:08:31.085Z,1008.11
2016-07-31T11:09:31.093Z,1007.98
2016-07-31T11:10:31.847Z,1007.92
2016-07-31T11:11:31.707Z,1007.97
2016-07-31T11:12:31.119Z,1008.06
2016-07-31T11:13:31.619Z,1008.05
2016-07-31T11:14:31.639Z,1007.88
2016-07-31T11:15:31.146Z,1007.79
2016-07-31T11:16:31.156Z,1007.74
2016-07-31T11:17:31.165Z,1007.72
2016-07-31T11:18:31.172Z,1007.7
2016-07-31T11:19:31.181Z,1007.63
2016-07-31T11:20:31.192Z,1007.62
2016-07-31T11:21:31.200Z,1007.58
2016-07-31T11:22:31.207Z,1007.63
2016-07-31T11:23:31.217Z,1007.73
2016-07-31T11:24:31.224Z,1007.62
2016-07-31T11:25:31.232Z,1007.61
2016-07-31T11:26:31.240Z,1007.57
2016-07-31T11:27:31.252Z,1007.67
2016-07-31T11:28:31.259Z,1007.75
2016-07-31T11:29:31.269Z,1007.7
2016-07-31T11:31:31.285Z,1007.62
2016-07-31T11:32:31.289Z,1007.78
2016-07-31T11:33:31.299Z,1007.81
2016-07-31T11:34:31.309Z,1007.78
2016-07-31T11:35:31.314Z,1007.84
2016-07-31T11:36:31.323Z,1007.92
2016-07-31T11:37:31.331Z,1007.95
2016-07-31T11:38:31.341Z,1007.89
2016-07-31T11:39:31.347Z,1007.9
2016-07-31T11:40:31.355Z,1007.8
2016-07-31T11:41:31.366Z,1007.71
2016-07-31T11:42:31.972Z,1007.7
2016-07-31T11:43:31.378Z,1007.72
2016-07-31T11:46:31.405Z,1007.61
2016-07-31T11:47:32.112Z,1007.51
2016-07-31T11:48:31.422Z,1007.48
2016-07-31T11:49:31.430Z,1007.42
2016-07-31T11:50:31.436Z,1007.44
2016-07-31T11:51:31.446Z,1007.47
2016-07-31T11:53:31.814Z,1007.48
2016-07-31T11:54:32.521Z,1007.5
2016-07-31T11:55:31.480Z,1007.53
2016-07-31T11:56:31.489Z,1007.68
2016-07-31T11:57:31.495Z,1007.76
2016-07-31T11:58:31.503Z,1007.63
2016-07-31T11:59:31.511Z,1007.6
2016-07-31T12:01:31.528Z,1007.3
2016-07-31T12:02:31.538Z,1007.18
2016-07-31T12:03:31.547Z,1007.1
2016-07-31T12:04:31.553Z,1007.09
2016-07-31T12:05:31.561Z,1007.12
2016-07-31T12:06:31.571Z,1007.12
2016-07-31T12:07:31.581Z,1007.15
2016-07-31T12:08:31.615Z,1007.1
2016-07-31T12:09:31.598Z,1007.12
2016-07-31T12:10:31.605Z,1007.17
2016-07-31T12:11:31.612Z,1007.14
2016-07-31T12:12:31.621Z,1007.28
2016-07-31T12:13:31.631Z,1007.36
2016-07-31T12:14:31.637Z,1007.51
2016-07-31T12:16:31.654Z,1007.48
2016-07-31T12:17:31.664Z,1007.3
2016-07-31T12:18:31.670Z,1007.25
2016-07-31T12:19:31.804Z,1007.16
2016-07-31T12:20:32.245Z,1007.13
2016-07-31T12:21:31.696Z,1007.15
2016-07-31T12:22:32.887Z,1007.21
2016-07-31T12:23:31.711Z,1007.33
2016-07-31T12:24:31.720Z,1007.36
2016-07-31T12:25:31.727Z,1007.44
2016-07-31T12:26:31.736Z,1007.51
2016-07-31T12:27:31.742Z,1007.37
2016-07-31T12:28:31.754Z,1007.09
2016-07-31T12:29:31.760Z,1006.92
2016-07-31T12:30:31.769Z,1006.97
2016-07-31T12:31:32.669Z,1007.06
2016-07-31T12:32:31.787Z,1007.32
2016-07-31T12:33:31.795Z,1007.41
2016-07-31T12:34:31.803Z,1007.36
2016-07-31T12:35:31.812Z,1007.22
2016-07-31T12:36:31.818Z,1007.12
2016-07-31T12:37:31.827Z,1007.11